Tropical Cyclones
[Index]
Main Index Home Page Stock Weather Photos Extreme Storms Discussion Storm News and Storm Chasing Reports Tropical Cyclones / Hurricanes / Typhoons Weather Data and Links Wild Fires / Bushfires Weather Observation Techniques Weather Picture Catalogue Tornado Pictures and Reports Stock Video Footage and DVDs for sale
Season 2002-2003 Tropical Cyclone ZOE Track Map
Season 2002-2003 Summaries (Operational Data): [AU] [SIO] [SPAC] [SH]
<<- Previous TC | 2002-2003 Season | Next TC ->>

click for intensity scale information  Lat/long Grid: Show Hide

 Date Labels: Show Hide

Operational Tropical Cyclone Data : JTWC Advisories

Name: ZOE
Number: 0306

23 Dec 2002 21:00 UTC to 01 Jan 2003 00:00 UTC

    date/time    lat    long     hPa   cat  kts
2002-12-23 21    8.0   176.0W   1007         25          
2002-12-24 21    9.0   180.0    1007         25          
2002-12-25 09   10.7   178.3    1003         25          
2002-12-25 12   11.0   177.7                             
2002-12-25 18   11.3   177.3     996         30          
2002-12-25 21   10.8   175.5     995    1    35          
2002-12-26 00   10.8   175.0     990    1    45          
2002-12-26 06   10.8   174.7     980    2    55          
2002-12-26 12   10.7   174.1     975    2    60          
2002-12-26 18   10.9   173.2     970    2    60          
2002-12-27 00   11.3   172.5     960    3    75          
2002-12-27 06   11.5   171.5     920    5   110          
2002-12-27 12   11.6   170.6     910    5   120          
2002-12-27 18   11.8   170.2     900    5   125          
2002-12-28 00   12.3   169.8     900    5   125          
2002-12-28 06   12.5   169.5     890    5   130          
2002-12-28 12   12.5   169.2     900    5   125          
2002-12-28 18   12.5   169.3     900    5   125          
2002-12-29 00   12.7   169.5     915    5   115          
2002-12-29 06   13.0   169.9     920    5   110          
2002-12-29 12   13.5   170.4     925    4   100          
2002-12-29 18   13.9   171.0     930    4    95          
2002-12-30 00   14.2   171.7     935    4    90          
2002-12-30 06   15.0   172.1     950    3    80          
2002-12-30 12   15.3   172.5     965    3    70          
2002-12-30 18   16.5   173.3     975    2    60          
2002-12-31 00   16.5   173.5     980    2    55          
2002-12-31 06   17.8   173.6     985    2    50          
2002-12-31 12   18.3   174.0     987    1    45          
2002-12-31 18   19.5   174.8     990    1    40          
2003-01-01 00   20.2   175.0     997         30          
Winds are 10-min average.

Tropical cyclone tracks developed by Michael Bath using operational warnings and advisories and Google Maps.


[Australian Severe Weather index] [Copyright Notice] [Email Contacts] [Search This Site] [Privacy Policy]
Document: tropical_cyclone_zoe.htm Updated: 2 May 2017